Flight Track Log - Related Links

Times and Time Zones

All times are in EDT time to prevent confusion due to time zone crossing. See the N65624 flight status page for this flight to view local times or setup timezone preferences in your user account.

Time Position Orientation Groundspeed Altitude Reporting Facility
EDT Latitude Longitude Course Direction KTS MPH feet Rate Location/Type
Tue 08:14:40 AM 28.5500 -81.3167 300° West 78 90 600  Level Orlando TRACON
Tue 08:16:16 AM 28.5667 -81.3500 300° West 99 114 1,400 423 Climbing Orlando TRACON
Tue 08:17:16 AM 28.5500 -81.3667 221° Southwest 96 110 1,700 350 Climbing Orlando TRACON
Tue 08:18:16 AM 28.5500 -81.4000 270° West 91 105 2,100 446 Climbing Orlando TRACON
Tue 08:19:17 AM 28.5167 -81.4000 180° South 83 96 2,600 417 Climbing Orlando TRACON
Tue 08:20:11 AM 28.5000 -81.4000 180° South 93 107 2,900 200 Climbing Orlando TRACON
Tue 08:21:17 AM 28.4833 -81.4333 240° Southwest 100 115 3,000 50 Climbing Orlando TRACON
Tue 08:22:11 AM 28.4667 -81.4500 221° Southwest 102 117 3,000  Level Orlando TRACON
Tue 08:23:11 AM 28.4500 -81.4667 221° Southwest 97 112 3,000 95 Level Orlando TRACON
Tue 08:24:17 AM 28.4167 -81.5000 221° Southwest 96 110 3,200 263 Climbing Orlando TRACON
Tue 08:25:05 AM 28.4000 -81.5000 180° South 93 107 3,500 143 Climbing Orlando TRACON
Tue 08:26:23 AM 28.3667 -81.5333 221° Southwest 101 116 3,500  Level Orlando TRACON
Tue 08:27:24 AM 28.3500 -81.5500 221° Southwest 99 114 3,500 48 Level Orlando TRACON
Tue 08:28:29 AM 28.3167 -81.5500 180° South 93 107 3,600 48 Climbing Orlando TRACON
Tue 08:29:30 AM 28.3000 -81.5333 139° Southeast 98 113 3,600  Level Orlando TRACON
Tue 08:30:12 AM 28.2833 -81.5500 221° Southwest 103 119 3,600 50 Level Orlando TRACON
Tue 08:31:30 AM 28.2333 -81.5500 180° South 105 121 3,700  Climbing Orlando TRACON
Tue 08:32:18 AM 28.2167 -81.5500 180° South 105 121 3,600 -118 Descending Orlando TRACON
Tue 08:33:12 AM 28.1833 -81.5667 204° Southwest 109 125 3,500 -53 Descending Orlando TRACON
Tue 08:34:12 AM 28.1667 -81.5667 180° South 102 117 3,500  Level Orlando TRACON
Tue 08:35:13 AM 28.1333 -81.5667 180° South 96 110 3,500  Level Orlando TRACON
Tue 08:36:13 AM 28.1167 -81.5667 180° South 97 112 3,500  Level Orlando TRACON
Tue 08:37:13 AM 28.0833 -81.5667 180° South 100 115 3,500  Level Orlando TRACON
Tue 08:38:21 AM 28.0536 -81.5681 182° South 99 114 3,500  Level Miami Center
Tue 08:39:23 AM 28.0258 -81.5694 183° South 101 116 3,500  Level Miami Center
Tue 08:40:24 AM 27.9917 -81.5683 178° South 101 116 3,500  Level Miami Center
Tue 08:41:26 AM 27.9639 -81.5700 183° South 101 116 3,500  Level Miami Center
Tue 08:42:27 AM 27.9350 -81.5736 186° South 101 116 3,500  Level Miami Center
Tue 08:43:29 AM 27.9072 -81.5803 192° South 101 116 3,500  Level Miami Center
Tue 08:44:31 AM 27.8794 -81.5828 185° South 101 116 3,500  Level Miami Center
Tue 08:45:32 AM 27.8517 -81.5894 192° South 101 116 3,500 49 Level Miami Center
Tue 08:46:34 AM 27.8256 -81.5842 170° South 105 121 3,600 -49 Climbing Miami Center
Tue 08:47:35 AM 27.8031 -81.5647 143° Southeast 105 121 3,400 -49 Descending Miami Center
Tue 08:48:37 AM 27.7714 -81.5511 159° South 104 120 3,500 48 Climbing Miami Center
Tue 08:49:39 AM 27.7444 -81.5497 177° South 100 115 3,500  Level Miami Center
Tue 08:50:40 AM 27.7175 -81.5542 188° South 100 115 3,500  Level Miami Center
Tue 08:51:42 AM 27.6900 -81.5503 173° South 100 115 3,500  Level Miami Center
Tue 08:52:43 AM 27.6633 -81.5411 163° South 100 115 3,500  Level Miami Center
Tue 08:53:45 AM 27.6361 -81.5292 159° South 102 117 3,500  Level Miami Center
Tue 08:54:46 AM 27.6075 -81.5269 176° South 102 117 3,500  Level Miami Center
Tue 08:55:48 AM 27.5811 -81.5194 166° South 102 117 3,500 -49 Level Miami Center
Tue 08:56:49 AM 27.5636 -81.4919 126° Southeast 105 121 3,400 -49 Descending Miami Center
Tue 08:57:51 AM 27.5400 -81.4642 134° Southeast 105 121 3,400  Level Miami Center

Login

Don't have an account? Register now (free) for customized features, flight alerts, and more!